Terminal Aerodrome Forecast
Issued by NWS Indianapolis, IN

Home | Current Version | Previous Version | Text Only | Print | Product List | Glossary On
Versions: 1 2 3 4 5 6 7 8 9 10 11 12 13 14 15 16 17 18 19 20 21 22 23 24 25 26 27 28 29 30 31 32
000
FTUS43 KIND 300757 AAB
TAFIND
TAF AMD
KIND 300757Z 3008/0112 13008KT P6SM BKN050 OVC080
     FM301200 17011KT 5SM -SHRA VCTS SCT025 BKN040CB
     FM301900 18013G21KT P6SM -SHRA BKN045
     FM302100 17013KT P6SM -SHRA VCTS BKN050CB
     FM010100 17012G20KT P6SM SHRA OVC050 WS020/19045KT=

USA.gov is the U.S. government's official web portal to all federal, state and local government web resources and services.